Time;durP1;ratioP1;P1;durP2;ratioP2;P2;SDS_P1;SDS_P2;PMS_P1;PMS_P2;Temp;Humidity;BMP_temperature;BMP_pressure;BME280_temperature;BME280_humidity;BME280_pressure;Samples;Min_cycle;Max_cycle;Signal;HPM_P1;HPM_P2
2023/11/13 00:02:01;;;;;;;20.25;14.27;;;;;;;;;;5014040;28;20447;-63
2023/11/13 00:04:26;;;;;;;23.38;16.73;;;;;;;;;;5014586;28;20112;-62
2023/11/13 00:06:51;;;;;;;21.75;14.90;;;;;;;;;;5014140;28;20034;-61
2023/11/13 00:09:17;;;;;;;20.63;14.10;;;;;;;;;;5013979;28;20040;-61
2023/11/13 00:11:42;;;;;;;20.08;13.98;;;;;;;;;;5014090;28;20030;-61
2023/11/13 00:14:08;;;;;;;14.70;11.65;;;;;;;;;;5014322;28;20041;-62
2023/11/13 00:16:33;;;;;;;12.60;10.20;;;;;;;;;;5014263;28;20041;-65
2023/11/13 00:18:59;;;;;;;16.02;11.55;;;;;;;;;;4996441;28;20026;-65
2023/11/13 00:21:24;;;;;;;17.08;11.50;;;;;;;;;;5013873;28;20030;-61
2023/11/13 00:23:50;;;;;;;16.42;11.15;;;;;;;;;;5013822;28;20022;-61
2023/11/13 00:26:16;;;;;;;14.70;10.82;;;;;;;;;;5014346;28;20064;-60
2023/11/13 00:28:49;;;;;;;14.00;11.10;;;;;;;;;;4996417;28;20048;-65
2023/11/13 00:31:14;;;;;;;14.70;11.18;;;;;;;;;;4980113;28;20452;-65
2023/11/13 00:33:40;;;;;;;16.73;11.82;;;;;;;;;;4996460;28;20088;-66
2023/11/13 00:36:06;;;;;;;15.68;10.45;;;;;;;;;;5014243;28;20116;-66
2023/11/13 00:38:32;;;;;;;12.52;9.93;;;;;;;;;;5013848;28;20076;-65
2023/11/13 00:40:58;;;;;;;12.70;10.30;;;;;;;;;;4995844;28;20018;-65
2023/11/13 00:43:24;;;;;;;14.48;10.73;;;;;;;;;;4996234;28;20444;-65
2023/11/13 00:45:49;;;;;;;15.77;10.57;;;;;;;;;;5008186;28;20053;-65
2023/11/13 00:48:15;;;;;;;16.65;10.70;;;;;;;;;;5014139;28;20037;-65
2023/11/13 00:50:41;;;;;;;15.57;10.20;;;;;;;;;;4996343;28;20060;-61
2023/11/13 00:53:06;;;;;;;11.25;8.65;;;;;;;;;;5013622;28;20034;-61
2023/11/13 00:55:32;;;;;;;13.10;9.32;;;;;;;;;;4996162;28;20036;-61
2023/11/13 00:57:57;;;;;;;14.63;9.75;;;;;;;;;;5013641;28;20029;-61
2023/11/13 01:00:22;;;;;;;11.80;10.13;;;;;;;;;;5013452;28;20029;-60
2023/11/13 01:02:48;;;;;;;11.73;9.57;;;;;;;;;;4979941;28;20381;-61
2023/11/13 01:05:13;;;;;;;13.48;9.60;;;;;;;;;;5017149;28;20030;-61
2023/11/13 01:07:39;;;;;;;15.15;9.85;;;;;;;;;;5017149;28;20022;-61
2023/11/13 01:10:05;;;;;;;14.93;10.45;;;;;;;;;;5017231;28;20025;-61
2023/11/13 01:12:31;;;;;;;14.68;10.02;;;;;;;;;;4983496;28;20413;-65
2023/11/13 01:14:57;;;;;;;11.45;9.40;;;;;;;;;;5017366;28;20026;-65
2023/11/13 01:17:22;;;;;;;13.50;10.30;;;;;;;;;;4999195;28;20033;-65
2023/11/13 01:19:48;;;;;;;13.90;9.90;;;;;;;;;;5016704;28;20580;-65
2023/11/13 01:22:13;;;;;;;12.82;9.35;;;;;;;;;;4999343;28;20381;-65
2023/11/13 01:24:39;;;;;;;12.10;9.88;;;;;;;;;;5025178;23;20043;-61
2023/11/13 01:29:44;;;;;;;13.05;9.55;;;;;;;;;;5034379;23;20042;-62
2023/11/13 01:32:10;;;;;;;16.30;10.00;;;;;;;;;;5016616;28;20041;-63
2023/11/13 01:34:36;;;;;;;13.73;10.07;;;;;;;;;;4999176;28;20473;-63
2023/11/13 01:37:02;;;;;;;12.70;9.70;;;;;;;;;;5016248;28;20029;-63
2023/11/13 01:39:28;;;;;;;12.88;10.13;;;;;;;;;;5031369;28;20038;-62
2023/11/13 01:41:53;;;;;;;14.35;10.48;;;;;;;;;;4998567;28;20026;-63
2023/11/13 01:44:18;;;;;;;16.15;10.73;;;;;;;;;;5016642;28;20113;-62
2023/11/13 01:46:44;;;;;;;13.98;10.05;;;;;;;;;;5014786;28;20153;-62
2023/11/13 01:49:09;;;;;;;12.65;9.82;;;;;;;;;;4998819;28;20030;-62
2023/11/13 01:51:35;;;;;;;14.00;10.10;;;;;;;;;;5031205;28;20504;-63
2023/11/13 01:54:01;;;;;;;13.45;10.05;;;;;;;;;;4998419;28;20038;-63
2023/11/13 01:56:27;;;;;;;13.85;9.48;;;;;;;;;;4998358;28;20490;-63
2023/11/13 01:58:54;;;;;;;13.73;9.85;;;;;;;;;;5014499;28;20425;-63
2023/11/13 02:01:20;;;;;;;14.82;9.23;;;;;;;;;;5031032;28;20077;-63
2023/11/13 02:03:48;;;;;;;14.10;9.93;;;;;;;;;;5015779;28;20022;-63
2023/11/13 02:06:14;;;;;;;14.55;10.20;;;;;;;;;;5030949;28;20026;-62
2023/11/13 02:08:40;;;;;;;17.45;11.07;;;;;;;;;;5030942;28;20044;-63
2023/11/13 02:11:06;;;;;;;16.70;11.05;;;;;;;;;;4997940;28;20108;-63
2023/11/13 02:13:32;;;;;;;13.88;10.10;;;;;;;;;;5014368;28;20030;-63
2023/11/13 02:15:58;;;;;;;11.50;8.88;;;;;;;;;;5029822;28;20539;-62
2023/11/13 02:18:23;;;;;;;13.77;10.10;;;;;;;;;;5030701;28;20083;-62
2023/11/13 02:20:48;;;;;;;13.57;10.70;;;;;;;;;;4997907;28;20083;-62
2023/11/13 02:23:14;;;;;;;12.77;9.88;;;;;;;;;;4997833;28;20428;-63
2023/11/13 02:25:41;;;;;;;14.88;10.35;;;;;;;;;;5030549;28;20057;-61
2023/11/13 02:28:06;;;;;;;12.70;10.70;;;;;;;;;;5015303;28;20393;-62
2023/11/13 02:30:36;;;;;;;12.90;9.77;;;;;;;;;;4997473;28;20041;-62
2023/11/13 02:33:03;;;;;;;12.57;9.48;;;;;;;;;;5015530;28;20041;-61
2023/11/13 02:35:28;;;;;;;9.75;8.70;;;;;;;;;;5030463;28;20030;-61
2023/11/13 02:37:53;;;;;;;10.82;9.13;;;;;;;;;;4997541;28;20033;-61
2023/11/13 02:40:19;;;;;;;12.13;9.38;;;;;;;;;;5015226;28;20034;-61
2023/11/13 02:42:44;;;;;;;16.02;9.40;;;;;;;;;;5015030;28;20060;-60
2023/11/13 02:45:10;;;;;;;13.73;8.75;;;;;;;;;;4981236;28;20033;-61
2023/11/13 02:47:35;;;;;;;12.35;8.95;;;;;;;;;;4997750;28;20465;-61
2023/11/13 02:50:02;;;;;;;11.93;8.80;;;;;;;;;;5015198;28;20033;-60
2023/11/13 02:52:27;;;;;;;10.60;8.95;;;;;;;;;;4997225;28;20041;-60
2023/11/13 02:54:53;;;;;;;13.13;9.77;;;;;;;;;;4997890;28;20117;-60
2023/11/13 02:57:19;;;;;;;13.70;9.35;;;;;;;;;;5014760;28;20049;-60
2023/11/13 02:59:44;;;;;;;13.05;9.20;;;;;;;;;;4997033;28;20178;-60
2023/11/13 03:02:10;;;;;;;11.88;8.95;;;;;;;;;;4997100;28;20529;-60
2023/11/13 03:04:35;;;;;;;14.75;9.00;;;;;;;;;;5014880;28;20018;-61
2023/11/13 03:07:01;;;;;;;11.40;9.25;;;;;;;;;;4980761;28;20076;-60
2023/11/13 03:09:26;;;;;;;11.80;9.07;;;;;;;;;;5014832;28;20033;-61
2023/11/13 03:11:51;;;;;;;13.02;9.38;;;;;;;;;;5014751;28;20120;-60
2023/11/13 03:14:17;;;;;;;13.80;9.65;;;;;;;;;;4996853;28;20045;-61
2023/11/13 03:16:42;;;;;;;14.63;10.15;;;;;;;;;;4997189;28;20041;-61
2023/11/13 03:19:07;;;;;;;11.85;9.60;;;;;;;;;;4996731;28;20030;-61
2023/11/13 03:21:33;;;;;;;12.70;9.13;;;;;;;;;;5014651;28;20037;-61
2023/11/13 03:23:59;;;;;;;12.57;9.15;;;;;;;;;;4996691;28;20033;-61
2023/11/13 03:26:28;;;;;;;12.40;9.32;;;;;;;;;;4996565;28;20034;-61
2023/11/13 03:28:55;;;;;;;12.07;9.13;;;;;;;;;;5014354;28;20109;-61
2023/11/13 03:31:21;;;;;;;11.20;8.95;;;;;;;;;;5014475;28;20034;-61
2023/11/13 03:33:46;;;;;;;11.73;8.77;;;;;;;;;;5014440;28;20033;-61
2023/11/13 03:36:12;;;;;;;9.68;7.90;;;;;;;;;;4996582;28;20108;-61
2023/11/13 03:38:37;;;;;;;11.98;8.75;;;;;;;;;;4980159;28;20037;-60
2023/11/13 03:41:02;;;;;;;10.52;8.15;;;;;;;;;;5014096;28;20448;-61
2023/11/13 03:43:28;;;;;;;11.75;8.45;;;;;;;;;;5014056;28;20509;-61
2023/11/13 03:45:54;;;;;;;10.52;9.02;;;;;;;;;;4996393;28;20374;-61
2023/11/13 03:48:19;;;;;;;9.38;8.23;;;;;;;;;;4996344;28;20065;-61
2023/11/13 03:50:44;;;;;;;9.68;8.40;;;;;;;;;;5013930;28;20042;-60
2023/11/13 03:53:10;;;;;;;11.45;8.88;;;;;;;;;;5014191;28;20109;-60
2023/11/13 03:55:35;;;;;;;11.32;8.82;;;;;;;;;;5014423;28;20092;-60
2023/11/13 03:58:00;;;;;;;10.13;8.10;;;;;;;;;;4997055;28;20040;-61
2023/11/13 04:00:26;;;;;;;13.63;8.82;;;;;;;;;;5014068;28;20033;-61
2023/11/13 04:02:51;;;;;;;9.00;8.00;;;;;;;;;;4996137;28;20488;-61
2023/11/13 04:05:17;;;;;;;10.55;7.97;;;;;;;;;;5014009;28;20410;-61
2023/11/13 04:07:42;;;;;;;9.88;7.85;;;;;;;;;;4996722;28;20034;-61
2023/11/13 04:10:13;;;;;;;12.35;8.70;;;;;;;;;;5013704;28;20026;-62
2023/11/13 04:12:42;;;;;;;12.13;8.13;;;;;;;;;;4996242;28;20088;-60
2023/11/13 04:15:08;;;;;;;11.85;8.20;;;;;;;;;;5014049;28;20037;-61
2023/11/13 04:17:34;;;;;;;8.35;7.50;;;;;;;;;;5014032;28;20034;-60
2023/11/13 04:19:59;;;;;;;9.73;7.97;;;;;;;;;;5013722;28;20038;-60
2023/11/13 04:22:26;;;;;;;10.23;7.90;;;;;;;;;;5013649;28;20037;-60
2023/11/13 04:24:51;;;;;;;8.30;7.35;;;;;;;;;;5013744;28;20037;-60
2023/11/13 04:27:17;;;;;;;11.18;8.25;;;;;;;;;;4995553;28;20034;-60
2023/11/13 04:29:42;;;;;;;10.15;7.20;;;;;;;;;;4995903;28;20042;-60
2023/11/13 04:32:08;;;;;;;9.85;7.38;;;;;;;;;;5013918;28;20469;-61
2023/11/13 04:34:33;;;;;;;8.60;7.45;;;;;;;;;;5014096;28;20119;-60
2023/11/13 04:36:59;;;;;;;16.40;10.35;;;;;;;;;;5013508;28;20034;-60
2023/11/13 04:39:24;;;;;;;28.25;14.75;;;;;;;;;;5016371;28;20030;-60
2023/11/13 04:41:49;;;;;;;24.63;13.40;;;;;;;;;;5017113;28;20473;-60
2023/11/13 04:44:15;;;;;;;16.40;10.43;;;;;;;;;;4999652;28;20030;-60
2023/11/13 04:46:41;;;;;;;10.18;9.07;;;;;;;;;;5017192;28;20061;-60
2023/11/13 04:49:07;;;;;;;23.20;13.77;;;;;;;;;;4999956;28;20038;-60
2023/11/13 04:51:32;;;;;;;25.50;14.35;;;;;;;;;;5016367;28;20021;-60
2023/11/13 04:53:58;;;;;;;22.70;13.07;;;;;;;;;;4998356;28;20034;-60
2023/11/13 04:56:23;;;;;;;15.30;11.23;;;;;;;;;;5015532;28;20037;-60
2023/11/13 04:58:49;;;;;;;13.80;8.65;;;;;;;;;;5015088;28;20025;-61
2023/11/13 05:01:17;;;;;;;13.60;8.70;;;;;;;;;;5014622;28;20469;-60
2023/11/13 05:03:42;;;;;;;12.52;8.15;;;;;;;;;;5015109;28;20034;-61
2023/11/13 05:06:14;;;;;;;15.35;8.20;;;;;;;;;;5015643;28;20041;-60
2023/11/13 05:08:41;;;;;;;9.73;7.10;;;;;;;;;;5016375;28;20065;-60
2023/11/13 05:11:08;;;;;;;13.13;7.70;;;;;;;;;;4999192;28;20026;-59
2023/11/13 05:13:34;;;;;;;12.70;6.88;;;;;;;;;;5016422;28;20037;-60
2023/11/13 05:15:59;;;;;;;13.73;7.78;;;;;;;;;;5016189;28;20021;-61
2023/11/13 05:18:24;;;;;;;14.57;7.88;;;;;;;;;;5016828;28;20041;-61
2023/11/13 05:20:50;;;;;;;12.25;7.00;;;;;;;;;;5016569;28;20109;-61
2023/11/13 05:23:16;;;;;;;9.75;7.15;;;;;;;;;;4999597;28;20431;-61
2023/11/13 05:25:43;;;;;;;48.13;21.67;;;;;;;;;;5016458;28;20029;-61
2023/11/13 05:28:08;;;;;;;64.40;26.65;;;;;;;;;;5017002;28;20121;-61
2023/11/13 05:30:34;;;;;;;34.60;17.90;;;;;;;;;;4982159;28;20157;-61
2023/11/13 05:33:00;;;;;;;50.13;23.67;;;;;;;;;;4998641;28;20033;-61
2023/11/13 05:35:26;;;;;;;35.38;17.38;;;;;;;;;;5016402;28;20034;-61
2023/11/13 05:37:51;;;;;;;30.27;17.35;;;;;;;;;;4998883;28;20543;-61
2023/11/13 05:40:17;;;;;;;29.55;18.27;;;;;;;;;;5016473;28;20052;-61
2023/11/13 05:42:42;;;;;;;22.83;16.48;;;;;;;;;;5016117;28;20101;-62
2023/11/13 05:45:08;;;;;;;25.27;14.95;;;;;;;;;;5016439;28;20428;-61
2023/11/13 05:47:34;;;;;;;23.38;15.35;;;;;;;;;;5016376;28;20025;-62
2023/11/13 05:50:02;;;;;;;22.23;12.82;;;;;;;;;;5015288;28;20041;-62
2023/11/13 05:52:29;;;;;;;19.40;13.07;;;;;;;;;;4998890;28;20037;-62
2023/11/13 05:54:54;;;;;;;17.52;10.88;;;;;;;;;;5016278;28;20057;-61
2023/11/13 05:57:20;;;;;;;16.60;10.45;;;;;;;;;;5016472;28;20061;-62
2023/11/13 05:59:45;;;;;;;18.08;11.27;;;;;;;;;;5015771;28;20424;-61
2023/11/13 06:02:11;;;;;;;13.45;8.95;;;;;;;;;;5016377;28;20512;-61
2023/11/13 06:04:37;;;;;;;12.70;8.65;;;;;;;;;;5016169;28;20022;-61
2023/11/13 06:07:03;;;;;;;14.88;9.52;;;;;;;;;;5015598;28;20037;-62
2023/11/13 06:09:28;;;;;;;17.48;11.23;;;;;;;;;;5015989;28;20030;-62
2023/11/13 06:11:53;;;;;;;14.18;10.52;;;;;;;;;;5015865;28;20140;-61
2023/11/13 06:14:19;;;;;;;22.10;12.68;;;;;;;;;;5015863;28;20088;-61
2023/11/13 06:16:44;;;;;;;27.88;13.52;;;;;;;;;;5015844;28;20033;-64
2023/11/13 06:19:10;;;;;;;31.48;14.63;;;;;;;;;;5015383;28;20052;-64
2023/11/13 06:21:35;;;;;;;28.33;13.73;;;;;;;;;;5016236;28;20062;-67
2023/11/13 06:24:01;;;;;;;25.23;12.30;;;;;;;;;;5015667;28;20109;-64
2023/11/13 06:26:26;;;;;;;25.27;11.75;;;;;;;;;;5016140;28;20365;-65
2023/11/13 06:28:52;;;;;;;18.58;9.57;;;;;;;;;;5015419;28;20046;-65
2023/11/13 06:31:21;;;;;;;19.55;10.02;;;;;;;;;;5015455;28;20385;-64
2023/11/13 06:33:48;;;;;;;18.55;9.93;;;;;;;;;;5015847;28;20034;-64
2023/11/13 06:36:14;;;;;;;22.92;12.70;;;;;;;;;;5014958;28;20065;-64
2023/11/13 06:38:40;;;;;;;14.73;10.73;;;;;;;;;;5014349;28;20473;-64
2023/11/13 06:41:05;;;;;;;15.02;9.20;;;;;;;;;;5014313;28;20033;-67
2023/11/13 06:43:31;;;;;;;17.45;9.43;;;;;;;;;;5014123;28;20069;-64
2023/11/13 06:45:58;;;;;;;15.30;11.05;;;;;;;;;;5013158;28;20061;-64
2023/11/13 06:48:24;;;;;;;17.08;10.35;;;;;;;;;;4996170;28;20116;-64
2023/11/13 06:50:49;;;;;;;15.90;9.43;;;;;;;;;;5013942;28;20109;-64
2023/11/13 06:53:15;;;;;;;15.50;9.82;;;;;;;;;;5014475;28;20026;-62
2023/11/13 06:55:40;;;;;;;18.55;10.20;;;;;;;;;;5015105;28;20164;-62
2023/11/13 06:58:07;;;;;;;14.32;9.90;;;;;;;;;;4998031;28;20072;-62
2023/11/13 07:00:34;;;;;;;15.90;11.25;;;;;;;;;;5014586;28;20057;-62
2023/11/13 07:02:59;;;;;;;14.95;10.68;;;;;;;;;;5014976;28;20377;-62
2023/11/13 07:05:24;;;;;;;12.05;8.43;;;;;;;;;;4997046;28;20105;-62
2023/11/13 07:07:50;;;;;;;10.45;8.13;;;;;;;;;;4997132;28;20080;-62
2023/11/13 07:10:16;;;;;;;11.15;7.97;;;;;;;;;;5015134;28;20096;-62
2023/11/13 07:12:41;;;;;;;9.93;8.40;;;;;;;;;;4996905;28;20462;-62
2023/11/13 07:15:07;;;;;;;9.68;7.15;;;;;;;;;;5014516;28;20055;-62
2023/11/13 07:17:32;;;;;;;7.90;7.10;;;;;;;;;;5015007;28;20022;-62
2023/11/13 07:19:59;;;;;;;9.05;6.13;;;;;;;;;;5014635;28;20042;-62
2023/11/13 07:22:25;;;;;;;7.70;7.00;;;;;;;;;;5014369;28;20393;-62
2023/11/13 07:24:52;;;;;;;9.07;6.45;;;;;;;;;;4996807;28;20026;-62
2023/11/13 07:27:17;;;;;;;8.05;6.60;;;;;;;;;;5014588;28;20049;-62
2023/11/13 07:29:42;;;;;;;7.25;6.55;;;;;;;;;;5014110;28;20398;-62
2023/11/13 07:32:08;;;;;;;8.45;7.00;;;;;;;;;;5014185;28;20025;-62
2023/11/13 07:34:33;;;;;;;10.00;7.38;;;;;;;;;;4996585;28;20014;-63
2023/11/13 07:36:59;;;;;;;7.88;7.07;;;;;;;;;;5014193;28;20108;-62
2023/11/13 07:39:27;;;;;;;8.60;7.65;;;;;;;;;;5014323;28;20461;-62
2023/11/13 07:41:53;;;;;;;6.88;6.15;;;;;;;;;;5014114;28;20030;-62
2023/11/13 07:44:21;;;;;;;7.43;5.88;;;;;;;;;;5014081;28;20052;-62
2023/11/13 07:46:47;;;;;;;8.23;6.85;;;;;;;;;;4996416;28;20026;-62
2023/11/13 07:49:12;;;;;;;8.52;6.32;;;;;;;;;;5013993;28;20073;-62
2023/11/13 07:51:38;;;;;;;9.07;7.25;;;;;;;;;;4996785;28;20030;-62
2023/11/13 07:54:04;;;;;;;8.88;7.18;;;;;;;;;;5013954;28;20370;-62
2023/11/13 07:56:31;;;;;;;10.57;7.55;;;;;;;;;;5014191;28;20091;-62
2023/11/13 07:58:57;;;;;;;10.32;6.75;;;;;;;;;;4996597;28;20449;-62
2023/11/13 08:01:24;;;;;;;6.72;5.63;;;;;;;;;;4996299;28;20033;-62
2023/11/13 08:03:49;;;;;;;6.55;5.75;;;;;;;;;;4980038;28;20499;-62
2023/11/13 08:06:15;;;;;;;7.40;5.88;;;;;;;;;;5013866;28;20104;-62
2023/11/13 08:08:40;;;;;;;7.53;5.78;;;;;;;;;;5013792;28;20030;-62
2023/11/13 08:11:07;;;;;;;8.75;6.20;;;;;;;;;;4996149;28;20037;-62
2023/11/13 08:13:35;;;;;;;8.35;5.88;;;;;;;;;;4998181;28;20381;-62
2023/11/13 08:16:00;;;;;;;6.22;5.63;;;;;;;;;;5017812;28;20117;-62
2023/11/13 08:18:26;;;;;;;6.10;4.93;;;;;;;;;;5017704;28;20457;-62
2023/11/13 08:20:51;;;;;;;5.32;4.82;;;;;;;;;;5017750;28;20030;-62
2023/11/13 08:23:16;;;;;;;8.30;6.10;;;;;;;;;;5000099;28;20030;-62
2023/11/13 08:25:43;;;;;;;14.25;8.40;;;;;;;;;;5017920;28;20026;-62
2023/11/13 08:28:11;;;;;;;9.80;6.00;;;;;;;;;;5017587;28;20060;-62
2023/11/13 08:30:37;;;;;;;9.65;6.30;;;;;;;;;;4984523;28;20129;-62
2023/11/13 08:33:03;;;;;;;9.65;5.70;;;;;;;;;;4998163;28;20070;-62
2023/11/13 08:35:30;;;;;;;5.72;4.72;;;;;;;;;;4998380;28;20041;-62
2023/11/13 08:37:57;;;;;;;6.60;4.55;;;;;;;;;;4997832;28;20103;-62
2023/11/13 08:40:23;;;;;;;7.88;5.38;;;;;;;;;;4997693;28;20540;-62
2023/11/13 08:42:49;;;;;;;6.10;4.78;;;;;;;;;;4997977;28;20027;-62
2023/11/13 08:45:15;;;;;;;7.00;5.38;;;;;;;;;;4997693;28;20030;-62
2023/11/13 08:47:45;;;;;;;8.07;5.70;;;;;;;;;;4997865;28;20049;-62
2023/11/13 08:50:11;;;;;;;8.13;5.15;;;;;;;;;;4997863;28;20041;-62
2023/11/13 08:52:41;;;;;;;6.38;4.78;;;;;;;;;;4997557;28;20034;-62
2023/11/13 08:55:10;;;;;;;6.50;5.05;;;;;;;;;;4997483;28;20127;-62
2023/11/13 08:57:41;;;;;;;5.80;4.05;;;;;;;;;;4997994;28;20030;-62
2023/11/13 09:00:08;;;;;;;7.35;5.47;;;;;;;;;;5012376;28;20045;-62
2023/11/13 09:02:33;;;;;;;6.45;4.88;;;;;;;;;;4980247;28;20025;-62
2023/11/13 09:05:00;;;;;;;7.22;4.75;;;;;;;;;;4997560;28;20030;-62
2023/11/13 09:07:25;;;;;;;5.90;4.75;;;;;;;;;;4997286;28;20081;-62
2023/11/13 09:09:55;;;;;;;6.07;4.78;;;;;;;;;;4997222;28;20030;-62
2023/11/13 09:12:20;;;;;;;9.68;5.93;;;;;;;;;;4997424;28;20034;-62
2023/11/13 09:14:47;;;;;;;8.57;5.70;;;;;;;;;;4997414;28;20096;-62
2023/11/13 09:17:12;;;;;;;7.40;5.07;;;;;;;;;;5012107;28;20103;-62
2023/11/13 09:19:41;;;;;;;5.60;4.60;;;;;;;;;;4997198;28;20026;-62
2023/11/13 09:22:09;;;;;;;8.75;4.45;;;;;;;;;;4997064;28;20037;-62
2023/11/13 09:24:39;;;;;;;8.57;5.45;;;;;;;;;;5011879;28;20026;-62
2023/11/13 09:27:09;;;;;;;6.32;5.10;;;;;;;;;;4997205;28;20098;-62
2023/11/13 09:29:35;;;;;;;7.28;4.90;;;;;;;;;;5003740;28;20046;-62
2023/11/13 09:32:00;;;;;;;5.65;4.50;;;;;;;;;;4998818;28;20112;-62
2023/11/13 09:34:25;;;;;;;7.30;5.00;;;;;;;;;;5016680;28;20060;-62
2023/11/13 09:36:51;;;;;;;8.52;5.63;;;;;;;;;;5016894;28;20084;-62
2023/11/13 09:39:17;;;;;;;6.43;4.53;;;;;;;;;;5016538;28;20039;-62
2023/11/13 09:41:45;;;;;;;5.15;4.05;;;;;;;;;;5016805;28;20068;-62
2023/11/13 09:44:11;;;;;;;5.90;4.38;;;;;;;;;;5016219;28;20064;-62
2023/11/13 09:46:38;;;;;;;4.90;4.38;;;;;;;;;;5016147;28;20037;-62
2023/11/13 09:49:10;;;;;;;6.32;4.22;;;;;;;;;;5016401;28;20033;-62
2023/11/13 09:51:37;;;;;;;6.72;4.38;;;;;;;;;;5016097;28;20076;-62
2023/11/13 09:54:03;;;;;;;6.22;4.38;;;;;;;;;;4998396;28;20543;-62
2023/11/13 09:56:30;;;;;;;5.40;4.47;;;;;;;;;;5016232;28;20073;-62
2023/11/13 09:58:57;;;;;;;5.07;3.70;;;;;;;;;;5016012;28;20036;-62
2023/11/13 10:01:23;;;;;;;3.83;3.45;;;;;;;;;;5016134;28;20121;-62
2023/11/13 10:03:48;;;;;;;3.78;3.47;;;;;;;;;;5015793;28;20064;-62
2023/11/13 10:06:14;;;;;;;4.22;3.40;;;;;;;;;;5016332;28;20030;-62
2023/11/13 10:08:40;;;;;;;6.25;3.67;;;;;;;;;;5015805;28;20377;-62
2023/11/13 10:11:08;;;;;;;5.57;3.65;;;;;;;;;;5015686;28;20113;-62
2023/11/13 10:13:34;;;;;;;4.38;3.38;;;;;;;;;;5015963;28;20215;-62
2023/11/13 10:16:14;;;;;;;6.07;3.88;;;;;;;;;;4998047;28;20112;-62
2023/11/13 10:18:39;;;;;;;5.22;3.35;;;;;;;;;;5015501;28;20033;-62
2023/11/13 10:21:05;;;;;;;5.80;3.85;;;;;;;;;;5015806;28;20034;-62
2023/11/13 10:23:36;;;;;;;3.88;3.47;;;;;;;;;;5015432;28;20026;-62
2023/11/13 10:26:01;;;;;;;3.97;3.58;;;;;;;;;;5015953;28;20029;-62
2023/11/13 10:28:37;;;;;;;3.85;3.50;;;;;;;;;;4998390;28;20124;-62
2023/11/13 10:31:04;;;;;;;5.53;3.25;;;;;;;;;;5015185;28;20034;-62
2023/11/13 10:33:30;;;;;;;7.32;3.60;;;;;;;;;;5015520;28;20029;-62
2023/11/13 10:35:57;;;;;;;4.03;3.45;;;;;;;;;;5014501;28;20121;-64
2023/11/13 10:38:24;;;;;;;4.05;3.67;;;;;;;;;;5015167;28;20030;-64
2023/11/13 10:40:55;;;;;;;3.30;2.88;;;;;;;;;;5015067;28;20073;-64
2023/11/13 10:43:20;;;;;;;;;;;;;;;;;;5015784;28;20495;-64
2023/11/13 10:45:46;;;;;;;3.03;2.78;;;;;;;;;;5015032;28;19944;-64
2023/11/13 10:48:11;;;;;;;4.28;3.47;;;;;;;;;;5015242;28;20026;-64
2023/11/13 10:50:36;;;;;;;5.07;3.22;;;;;;;;;;5014946;28;20030;-64
2023/11/13 10:53:03;;;;;;;2.92;2.72;;;;;;;;;;5014878;28;20362;-64
2023/11/13 10:55:28;;;;;;;3.65;3.20;;;;;;;;;;5030076;28;20030;-64
2023/11/13 10:57:55;;;;;;;5.32;3.45;;;;;;;;;;5015370;28;20084;-64
2023/11/13 11:00:20;;;;;;;6.15;3.85;;;;;;;;;;5014681;28;20176;-64
2023/11/13 11:02:46;;;;;;;3.67;3.13;;;;;;;;;;5015272;28;20105;-64
2023/11/13 11:05:19;;;;;;;6.00;3.92;;;;;;;;;;5014705;28;20018;-64
2023/11/13 11:07:48;;;;;;;4.03;3.17;;;;;;;;;;5014646;28;20034;-64
2023/11/13 11:10:13;;;;;;;4.28;3.88;;;;;;;;;;5029906;28;20416;-64
2023/11/13 11:12:42;;;;;;;6.88;4.07;;;;;;;;;;5014569;28;20034;-64
2023/11/13 11:15:11;;;;;;;4.80;3.47;;;;;;;;;;5029675;28;20084;-64
2023/11/13 11:17:40;;;;;;;4.38;3.05;;;;;;;;;;5015055;28;20037;-64
2023/11/13 11:20:10;;;;;;;2.75;2.55;;;;;;;;;;5014389;28;20396;-64
2023/11/13 11:22:43;;;;;;;4.28;2.72;;;;;;;;;;5014986;28;20042;-64
2023/11/13 11:25:11;;;;;;;2.90;2.60;;;;;;;;;;5029897;28;20030;-64
2023/11/13 11:27:44;;;;;;;3.72;2.70;;;;;;;;;;4997332;28;20049;-64
2023/11/13 11:30:32;;;;;;;4.05;3.03;;;;;;;;;;5029284;28;20132;-64
2023/11/13 11:32:59;;;;;;;3.97;2.70;;;;;;;;;;5006302;28;20057;-64
2023/11/13 11:35:25;;;;;;;2.67;2.47;;;;;;;;;;4996610;28;20140;-64
2023/11/13 11:38:09;;;;;;;3.85;2.35;;;;;;;;;;4996550;28;20033;-64
2023/11/13 11:40:35;;;;;;;3.08;2.50;;;;;;;;;;5014335;28;20030;-64
2023/11/13 11:43:02;;;;;;;2.20;2.00;;;;;;;;;;4996430;28;20369;-64
2023/11/13 11:45:27;;;;;;;2.33;2.13;;;;;;;;;;5014061;28;20528;-64
2023/11/13 11:47:53;;;;;;;4.32;2.67;;;;;;;;;;4996365;28;20033;-64
2023/11/13 11:50:19;;;;;;;4.25;3.03;;;;;;;;;;5014246;28;20034;-64
2023/11/13 11:53:19;;;;;;;2.42;2.22;;;;;;;;;;5013339;23;20047;-67
2023/11/13 11:55:45;;;;;;;3.28;2.45;;;;;;;;;;5003401;23;20137;-64
2023/11/13 11:58:12;;;;;;;2.45;2.25;;;;;;;;;;5013921;28;20026;-64
2023/11/13 12:00:38;;;;;;;3.20;2.42;;;;;;;;;;5013784;28;20057;-64
2023/11/13 12:03:03;;;;;;;4.45;2.65;;;;;;;;;;5013855;28;20061;-64
2023/11/13 12:05:29;;;;;;;2.50;2.05;;;;;;;;;;4996246;28;20449;-64
2023/11/13 12:07:55;;;;;;;2.42;2.22;;;;;;;;;;5013816;28;20097;-64
2023/11/13 12:10:21;;;;;;;2.22;2.10;;;;;;;;;;5013766;28;20389;-62
2023/11/13 12:12:47;;;;;;;3.50;2.30;;;;;;;;;;5013737;28;20042;-62
2023/11/13 12:15:13;;;;;;;2.53;2.33;;;;;;;;;;5014005;28;20060;-62
2023/11/13 12:17:39;;;;;;;2.33;2.13;;;;;;;;;;5013949;28;20096;-62
2023/11/13 12:20:06;;;;;;;2.63;2.42;;;;;;;;;;5013844;28;20474;-62
2023/11/13 12:22:35;;;;;;;2.42;2.20;;;;;;;;;;5014172;28;20041;-62
2023/11/13 12:25:03;;;;;;;2.63;2.30;;;;;;;;;;5013652;28;20080;-62
2023/11/13 12:27:29;;;;;;;3.47;2.55;;;;;;;;;;4996131;28;20030;-62
2023/11/13 12:30:00;;;;;;;2.80;2.38;;;;;;;;;;5013590;28;20030;-62
2023/11/13 12:32:29;;;;;;;2.88;2.58;;;;;;;;;;5013541;28;20034;-62
2023/11/13 12:34:55;;;;;;;3.08;2.85;;;;;;;;;;5013825;28;20065;-62
2023/11/13 12:37:21;;;;;;;3.30;2.88;;;;;;;;;;4995942;28;20037;-62
2023/11/13 12:39:48;;;;;;;3.97;2.53;;;;;;;;;;5013686;28;20033;-62
2023/11/13 12:42:15;;;;;;;3.85;2.80;;;;;;;;;;5013486;28;20113;-62
2023/11/13 12:44:42;;;;;;;4.05;2.78;;;;;;;;;;5014007;28;20453;-62
2023/11/13 12:47:08;;;;;;;3.65;2.60;;;;;;;;;;5013706;28;20026;-62
2023/11/13 12:49:35;;;;;;;5.00;3.83;;;;;;;;;;5013432;28;20030;-62
2023/11/13 12:52:03;;;;;;;7.32;4.25;;;;;;;;;;4995811;28;20057;-62
2023/11/13 12:54:29;;;;;;;4.20;2.53;;;;;;;;;;5013591;28;20092;-62
2023/11/13 12:56:54;;;;;;;4.30;3.13;;;;;;;;;;5013230;28;20088;-62
2023/11/13 12:59:20;;;;;;;2.90;2.63;;;;;;;;;;5014445;28;20042;-62
2023/11/13 13:01:45;;;;;;;6.60;3.83;;;;;;;;;;4999369;28;20029;-62
2023/11/13 13:04:11;;;;;;;5.63;3.58;;;;;;;;;;4999370;28;20026;-62
2023/11/13 13:06:38;;;;;;;3.83;3.35;;;;;;;;;;4999353;28;20062;-62
2023/11/13 13:09:05;;;;;;;5.20;4.35;;;;;;;;;;4983010;28;20036;-62
2023/11/13 13:11:32;;;;;;;7.88;4.60;;;;;;;;;;5017371;28;20030;-62
2023/11/13 13:13:57;;;;;;;7.45;4.85;;;;;;;;;;5017033;28;20413;-62
2023/11/13 13:16:25;;;;;;;7.93;5.13;;;;;;;;;;5016982;28;20044;-62
2023/11/13 13:18:51;;;;;;;8.93;6.28;;;;;;;;;;5016678;28;20041;-61
2023/11/13 13:21:17;;;;;;;15.15;9.27;;;;;;;;;;5015355;28;20064;-61
2023/11/13 13:23:47;;;;;;;13.68;8.05;;;;;;;;;;5016561;28;20029;-61
2023/11/13 13:26:12;;;;;;;13.23;7.75;;;;;;;;;;5017067;28;20034;-62
2023/11/13 13:28:40;;;;;;;10.40;6.43;;;;;;;;;;5015475;28;20092;-62
2023/11/13 13:31:06;;;;;;;10.68;5.55;;;;;;;;;;5015387;28;20018;-61
2023/11/13 13:33:32;;;;;;;9.68;5.88;;;;;;;;;;5015386;28;20084;-62
2023/11/13 13:35:58;;;;;;;6.18;4.97;;;;;;;;;;5015313;28;20026;-62
2023/11/13 13:38:25;;;;;;;6.55;4.05;;;;;;;;;;5015207;28;20214;-61
2023/11/13 13:40:50;;;;;;;6.07;4.13;;;;;;;;;;4997516;28;20065;-61
2023/11/13 13:43:16;;;;;;;5.53;4.30;;;;;;;;;;5015277;28;20069;-61
2023/11/13 13:45:45;;;;;;;11.48;5.85;;;;;;;;;;4997517;28;20029;-61
2023/11/13 13:48:11;;;;;;;14.27;8.25;;;;;;;;;;5015155;28;20029;-62
2023/11/13 13:50:37;;;;;;;19.48;9.35;;;;;;;;;;5015250;28;20373;-61
2023/11/13 13:53:03;;;;;;;11.43;7.35;;;;;;;;;;5015282;28;20040;-61
2023/11/13 13:55:32;;;;;;;8.77;6.63;;;;;;;;;;5014330;28;20057;-62
2023/11/13 13:58:00;;;;;;;8.15;6.70;;;;;;;;;;5015170;28;20025;-61
2023/11/13 14:00:28;;;;;;;52.47;26.48;;;;;;;;;;4997982;28;20091;-61
2023/11/13 14:02:55;;;;;;;104.45;51.03;;;;;;;;;;5015752;28;20053;-61
2023/11/13 14:05:20;;;;;;;91.65;45.00;;;;;;;;;;5015598;28;20052;-61
2023/11/13 14:07:46;;;;;;;72.97;36.00;;;;;;;;;;4998160;28;20065;-61
2023/11/13 14:10:12;;;;;;;66.57;28.92;;;;;;;;;;5014606;28;20022;-62
2023/11/13 14:12:38;;;;;;;34.40;15.90;;;;;;;;;;4998226;28;20553;-62
2023/11/13 14:15:04;;;;;;;186.82;60.20;;;;;;;;;;5015902;28;20126;-61
2023/11/13 14:17:30;;;;;;;208.20;68.57;;;;;;;;;;4998596;28;20076;-61
2023/11/13 14:19:56;;;;;;;60.25;25.60;;;;;;;;;;5015695;28;20053;-61
2023/11/13 14:22:22;;;;;;;51.85;20.17;;;;;;;;;;5016022;28;20433;-61
2023/11/13 14:24:48;;;;;;;45.17;20.00;;;;;;;;;;5015384;28;20105;-62
2023/11/13 14:27:14;;;;;;;38.40;19.30;;;;;;;;;;4997921;28;20033;-61
2023/11/13 14:29:42;;;;;;;31.58;17.20;;;;;;;;;;5015346;28;20049;-61
2023/11/13 14:32:10;;;;;;;44.45;20.50;;;;;;;;;;5015310;28;20038;-61